Current Weather

Republic

Farmingdale, New York (KFRG)

Report from: Monday, June 17, 2024 4:53 AM EDT
Current time: Monday, June 17, 2024 5:39 AM EDT

Nearby weather – Weather history – Daily summaries
Weather forecast

Temperature17.2°C (63.0°F)
Dew point16.1°C (61.0°F)
Winds 3 kts (1.5 m/s, 3.5 mph) Southeast (130°)
Visibility10 mi. (16.1 km)
Clouds Sky clear
Altimeter30.21 in.Hg (1023 mB)
Relative humidity93 %
Density altitude185 ft. (56 m)
Sea-level pressure102.3 kPa (1023 mB, 30.21 in.Hg)
Remarks Fully automated report
System requires maintenance
Automated weather observing station with precipitation discriminator
Pressure falling more slowly
Flight conditions Visual Meteorological Conditions
Raw dataKFRG 170853Z AUTO 13003KT 10SM CLR 17/16 A3021 RMK AO2 SLP229 T01720161 56003 $
An error has occurred. This application may no longer respond until reloaded. Reload 🗙